sensor_id;sensor_type;location;lat;lon;timestamp;P1;durP1;ratioP1;P2;durP2;ratioP2
813;SDS011;389;48.710;9.392;2022-08-19T02:53:11;24.27;;;18.37;;
813;SDS011;389;48.710;9.392;2022-08-19T02:55:42;22.73;;;17.40;;
813;SDS011;389;48.710;9.392;2022-08-19T02:58:09;21.93;;;17.20;;
813;SDS011;389;48.710;9.392;2022-08-19T03:00:35;24.13;;;17.93;;
813;SDS011;389;48.710;9.392;2022-08-19T03:03:00;23.87;;;18.63;;
813;SDS011;389;48.710;9.392;2022-08-19T03:05:26;22.93;;;18.13;;
813;SDS011;389;48.710;9.392;2022-08-19T03:07:52;23.20;;;18.30;;
813;SDS011;389;48.710;9.392;2022-08-19T03:10:18;23.07;;;18.23;;
813;SDS011;389;48.710;9.392;2022-08-19T03:12:43;25.43;;;19.30;;
813;SDS011;389;48.710;9.392;2022-08-19T03:15:11;25.57;;;19.97;;
813;SDS011;389;48.710;9.392;2022-08-19T03:17:36;25.50;;;19.50;;
813;SDS011;389;48.710;9.392;2022-08-19T03:20:02;23.23;;;19.30;;
813;SDS011;389;48.710;9.392;2022-08-19T03:22:29;26.13;;;19.27;;
813;SDS011;389;48.710;9.392;2022-08-19T03:24:54;27.17;;;19.23;;
813;SDS011;389;48.710;9.392;2022-08-19T03:27:20;25.47;;;20.60;;
813;SDS011;389;48.710;9.392;2022-08-19T03:29:46;26.33;;;20.40;;
813;SDS011;389;48.710;9.392;2022-08-19T03:32:12;23.93;;;18.80;;
813;SDS011;389;48.710;9.392;2022-08-19T03:34:38;25.10;;;20.20;;
813;SDS011;389;48.710;9.392;2022-08-19T03:37:08;24.53;;;19.57;;
813;SDS011;389;48.710;9.392;2022-08-19T03:39:36;30.50;;;22.43;;
813;SDS011;389;48.710;9.392;2022-08-19T03:42:03;28.40;;;22.10;;
813;SDS011;389;48.710;9.392;2022-08-19T03:44:30;25.43;;;21.17;;
813;SDS011;389;48.710;9.392;2022-08-19T03:46:58;27.03;;;22.00;;
813;SDS011;389;48.710;9.392;2022-08-19T03:49:26;28.63;;;20.43;;
813;SDS011;389;48.710;9.392;2022-08-19T03:51:54;30.03;;;22.23;;
813;SDS011;389;48.710;9.392;2022-08-19T03:54:22;27.20;;;21.10;;
813;SDS011;389;48.710;9.392;2022-08-19T03:56:50;27.73;;;21.50;;
813;SDS011;389;48.710;9.392;2022-08-19T03:59:25;30.33;;;21.00;;
813;SDS011;389;48.710;9.392;2022-08-19T04:01:54;26.07;;;21.03;;
813;SDS011;389;48.710;9.392;2022-08-19T04:04:21;27.83;;;20.83;;
813;SDS011;389;48.710;9.392;2022-08-19T04:06:47;28.27;;;21.53;;
813;SDS011;389;48.710;9.392;2022-08-19T04:09:13;31.03;;;21.40;;
813;SDS011;389;48.710;9.392;2022-08-19T04:11:40;27.97;;;21.93;;
813;SDS011;389;48.710;9.392;2022-08-19T04:14:15;29.60;;;21.70;;
813;SDS011;389;48.710;9.392;2022-08-19T04:16:42;31.90;;;22.33;;
813;SDS011;389;48.710;9.392;2022-08-19T04:19:09;29.00;;;21.43;;
813;SDS011;389;48.710;9.392;2022-08-19T04:21:35;28.07;;;22.53;;
813;SDS011;389;48.710;9.392;2022-08-19T04:24:01;29.87;;;21.60;;
813;SDS011;389;48.710;9.392;2022-08-19T04:26:30;30.70;;;21.97;;
813;SDS011;389;48.710;9.392;2022-08-19T04:28:59;31.23;;;22.87;;
813;SDS011;389;48.710;9.392;2022-08-19T04:31:27;29.00;;;22.23;;
813;SDS011;389;48.710;9.392;2022-08-19T04:33:56;31.40;;;23.20;;
813;SDS011;389;48.710;9.392;2022-08-19T04:36:25;31.30;;;22.37;;
813;SDS011;389;48.710;9.392;2022-08-19T04:38:53;27.93;;;21.60;;
813;SDS011;389;48.710;9.392;2022-08-19T04:41:27;27.07;;;21.47;;
813;SDS011;389;48.710;9.392;2022-08-19T04:44:11;32.00;;;24.20;;
813;SDS011;389;48.710;9.392;2022-08-19T04:46:37;30.50;;;22.90;;
813;SDS011;389;48.710;9.392;2022-08-19T04:49:04;29.13;;;21.40;;
813;SDS011;389;48.710;9.392;2022-08-19T04:51:31;28.47;;;22.67;;
813;SDS011;389;48.710;9.392;2022-08-19T04:53:57;35.73;;;23.40;;
813;SDS011;389;48.710;9.392;2022-08-19T04:56:24;34.10;;;24.80;;
813;SDS011;389;48.710;9.392;2022-08-19T04:58:52;30.07;;;23.13;;
813;SDS011;389;48.710;9.392;2022-08-19T05:01:20;30.17;;;23.40;;
813;SDS011;389;48.710;9.392;2022-08-19T05:03:48;29.30;;;22.23;;
813;SDS011;389;48.710;9.392;2022-08-19T05:06:15;28.70;;;23.30;;
813;SDS011;389;48.710;9.392;2022-08-19T05:08:43;30.00;;;24.43;;
813;SDS011;389;48.710;9.392;2022-08-19T05:11:11;32.30;;;23.40;;
813;SDS011;389;48.710;9.392;2022-08-19T05:13:37;30.17;;;23.20;;
813;SDS011;389;48.710;9.392;2022-08-19T05:16:03;35.23;;;24.70;;
813;SDS011;389;48.710;9.392;2022-08-19T05:18:29;31.77;;;23.83;;
813;SDS011;389;48.710;9.392;2022-08-19T05:21:14;28.73;;;23.03;;
813;SDS011;389;48.710;9.392;2022-08-19T05:24:00;31.10;;;23.30;;
813;SDS011;389;48.710;9.392;2022-08-19T05:26:27;29.07;;;22.97;;
813;SDS011;389;48.710;9.392;2022-08-19T05:28:53;29.00;;;22.17;;
813;SDS011;389;48.710;9.392;2022-08-19T05:31:19;30.20;;;22.63;;
813;SDS011;389;48.710;9.392;2022-08-19T05:33:45;31.13;;;23.03;;
813;SDS011;389;48.710;9.392;2022-08-19T05:36:11;31.03;;;23.90;;
813;SDS011;389;48.710;9.392;2022-08-19T05:38:38;31.00;;;22.93;;
813;SDS011;389;48.710;9.392;2022-08-19T05:41:08;29.80;;;23.43;;
813;SDS011;389;48.710;9.392;2022-08-19T05:43:34;29.80;;;23.20;;
813;SDS011;389;48.710;9.392;2022-08-19T05:46:02;31.27;;;25.13;;
813;SDS011;389;48.710;9.392;2022-08-19T05:48:29;29.90;;;23.70;;
813;SDS011;389;48.710;9.392;2022-08-19T05:50:56;30.43;;;23.13;;
813;SDS011;389;48.710;9.392;2022-08-19T05:53:23;29.20;;;22.57;;
813;SDS011;389;48.710;9.392;2022-08-19T05:55:49;32.27;;;24.30;;
813;SDS011;389;48.710;9.392;2022-08-19T05:58:14;30.33;;;23.80;;
813;SDS011;389;48.710;9.392;2022-08-19T06:00:40;31.70;;;23.20;;
813;SDS011;389;48.710;9.392;2022-08-19T06:03:08;32.40;;;22.20;;
813;SDS011;389;48.710;9.392;2022-08-19T06:05:35;31.33;;;21.60;;
813;SDS011;389;48.710;9.392;2022-08-19T06:08:00;30.43;;;22.70;;
813;SDS011;389;48.710;9.392;2022-08-19T06:10:26;27.10;;;21.53;;
813;SDS011;389;48.710;9.392;2022-08-19T06:12:52;30.10;;;22.93;;
813;SDS011;389;48.710;9.392;2022-08-19T06:15:19;30.87;;;24.63;;
813;SDS011;389;48.710;9.392;2022-08-19T06:17:49;35.50;;;23.90;;
813;SDS011;389;48.710;9.392;2022-08-19T06:20:14;29.83;;;23.80;;
813;SDS011;389;48.710;9.392;2022-08-19T06:22:43;28.10;;;23.03;;
813;SDS011;389;48.710;9.392;2022-08-19T06:25:11;30.60;;;24.60;;
813;SDS011;389;48.710;9.392;2022-08-19T06:27:38;32.50;;;24.70;;
813;SDS011;389;48.710;9.392;2022-08-19T06:30:04;33.57;;;24.63;;
813;SDS011;389;48.710;9.392;2022-08-19T06:32:30;30.00;;;24.10;;
813;SDS011;389;48.710;9.392;2022-08-19T06:34:56;32.80;;;25.90;;
813;SDS011;389;48.710;9.392;2022-08-19T06:37:21;34.37;;;27.50;;
813;SDS011;389;48.710;9.392;2022-08-19T06:39:47;30.77;;;25.13;;
813;SDS011;389;48.710;9.392;2022-08-19T06:42:13;34.03;;;25.60;;
813;SDS011;389;48.710;9.392;2022-08-19T06:44:42;32.53;;;25.97;;
813;SDS011;389;48.710;9.392;2022-08-19T06:47:12;31.60;;;25.10;;
813;SDS011;389;48.710;9.392;2022-08-19T06:49:40;30.10;;;24.23;;
813;SDS011;389;48.710;9.392;2022-08-19T06:52:06;32.00;;;25.90;;
813;SDS011;389;48.710;9.392;2022-08-19T06:54:32;34.70;;;27.10;;
813;SDS011;389;48.710;9.392;2022-08-19T06:56:58;35.07;;;26.90;;
813;SDS011;389;48.710;9.392;2022-08-19T06:59:27;33.83;;;25.90;;
813;SDS011;389;48.710;9.392;2022-08-19T07:01:57;33.93;;;26.10;;
813;SDS011;389;48.710;9.392;2022-08-19T07:04:26;33.27;;;26.00;;
813;SDS011;389;48.710;9.392;2022-08-19T07:06:58;36.47;;;27.33;;
813;SDS011;389;48.710;9.392;2022-08-19T07:09:26;36.20;;;26.50;;
813;SDS011;389;48.710;9.392;2022-08-19T07:11:52;32.80;;;24.77;;
813;SDS011;389;48.710;9.392;2022-08-19T07:14:20;33.67;;;26.20;;
813;SDS011;389;48.710;9.392;2022-08-19T07:16:48;34.20;;;26.20;;
813;SDS011;389;48.710;9.392;2022-08-19T07:19:15;36.43;;;27.60;;
813;SDS011;389;48.710;9.392;2022-08-19T07:21:41;34.53;;;24.97;;
813;SDS011;389;48.710;9.392;2022-08-19T07:24:07;33.40;;;26.37;;
813;SDS011;389;48.710;9.392;2022-08-19T07:26:33;34.90;;;27.73;;
813;SDS011;389;48.710;9.392;2022-08-19T07:29:06;35.43;;;28.07;;
813;SDS011;389;48.710;9.392;2022-08-19T07:31:32;34.93;;;27.73;;
813;SDS011;389;48.710;9.392;2022-08-19T07:34:02;35.20;;;26.90;;
813;SDS011;389;48.710;9.392;2022-08-19T07:36:32;31.30;;;23.90;;
813;SDS011;389;48.710;9.392;2022-08-19T07:39:00;41.57;;;28.37;;
813;SDS011;389;48.710;9.392;2022-08-19T07:41:29;36.53;;;26.17;;
813;SDS011;389;48.710;9.392;2022-08-19T07:43:56;33.53;;;26.57;;
813;SDS011;389;48.710;9.392;2022-08-19T07:46:23;34.93;;;26.60;;
813;SDS011;389;48.710;9.392;2022-08-19T07:48:49;35.00;;;27.33;;
813;SDS011;389;48.710;9.392;2022-08-19T07:51:18;35.03;;;26.60;;
813;SDS011;389;48.710;9.392;2022-08-19T07:53:46;35.37;;;26.67;;
813;SDS011;389;48.710;9.392;2022-08-19T07:56:15;35.43;;;25.93;;
813;SDS011;389;48.710;9.392;2022-08-19T07:58:42;33.47;;;26.77;;
813;SDS011;389;48.710;9.392;2022-08-19T08:01:10;37.40;;;27.33;;
813;SDS011;389;48.710;9.392;2022-08-19T08:03:38;33.77;;;25.93;;
813;SDS011;389;48.710;9.392;2022-08-19T08:06:23;33.80;;;26.43;;
813;SDS011;389;48.710;9.392;2022-08-19T08:09:07;36.37;;;25.30;;
813;SDS011;389;48.710;9.392;2022-08-19T08:11:37;35.77;;;26.87;;
813;SDS011;389;48.710;9.392;2022-08-19T08:14:04;34.37;;;26.83;;
813;SDS011;389;48.710;9.392;2022-08-19T08:16:37;35.80;;;26.53;;
813;SDS011;389;48.710;9.392;2022-08-19T08:19:04;36.87;;;27.63;;
813;SDS011;389;48.710;9.392;2022-08-19T08:21:31;35.63;;;26.30;;
813;SDS011;389;48.710;9.392;2022-08-19T08:23:57;33.23;;;26.87;;
813;SDS011;389;48.710;9.392;2022-08-19T08:26:23;40.27;;;27.77;;
813;SDS011;389;48.710;9.392;2022-08-19T08:28:49;36.97;;;27.27;;
813;SDS011;389;48.710;9.392;2022-08-19T08:31:15;38.43;;;26.87;;
813;SDS011;389;48.710;9.392;2022-08-19T08:33:40;34.80;;;27.27;;
813;SDS011;389;48.710;9.392;2022-08-19T08:36:07;33.50;;;26.17;;
813;SDS011;389;48.710;9.392;2022-08-19T08:38:34;36.93;;;26.77;;
813;SDS011;389;48.710;9.392;2022-08-19T08:41:02;38.70;;;27.97;;
813;SDS011;389;48.710;9.392;2022-08-19T08:43:44;39.17;;;26.80;;
813;SDS011;389;48.710;9.392;2022-08-19T08:46:17;42.37;;;28.40;;
813;SDS011;389;48.710;9.392;2022-08-19T08:48:52;34.63;;;26.43;;
813;SDS011;389;48.710;9.392;2022-08-19T08:51:47;35.70;;;27.00;;
813;SDS011;389;48.710;9.392;2022-08-19T08:54:19;33.00;;;25.67;;
813;SDS011;389;48.710;9.392;2022-08-19T08:56:46;31.07;;;25.47;;
813;SDS011;389;48.710;9.392;2022-08-19T08:59:25;33.27;;;25.60;;
813;SDS011;389;48.710;9.392;2022-08-19T09:01:53;30.00;;;23.33;;
813;SDS011;389;48.710;9.392;2022-08-19T09:04:19;28.47;;;23.30;;
813;SDS011;389;48.710;9.392;2022-08-19T09:09:46;29.40;;;23.70;;
813;SDS011;389;48.710;9.392;2022-08-19T09:12:26;28.23;;;23.03;;
813;SDS011;389;48.710;9.392;2022-08-19T09:15:05;29.63;;;23.77;;
813;SDS011;389;48.710;9.392;2022-08-19T09:17:33;27.57;;;21.47;;
813;SDS011;389;48.710;9.392;2022-08-19T09:20:01;34.40;;;23.63;;
813;SDS011;389;48.710;9.392;2022-08-19T09:22:48;33.50;;;23.60;;
813;SDS011;389;48.710;9.392;2022-08-19T09:25:16;28.13;;;22.00;;
813;SDS011;389;48.710;9.392;2022-08-19T09:27:43;27.27;;;22.87;;
813;SDS011;389;48.710;9.392;2022-08-19T09:30:31;27.10;;;22.67;;
813;SDS011;389;48.710;9.392;2022-08-19T09:33:00;33.33;;;23.03;;
813;SDS011;389;48.710;9.392;2022-08-19T09:35:26;26.83;;;21.60;;
813;SDS011;389;48.710;9.392;2022-08-19T09:37:53;27.00;;;22.97;;
813;SDS011;389;48.710;9.392;2022-08-19T09:40:20;27.63;;;21.80;;
813;SDS011;389;48.710;9.392;2022-08-19T09:42:45;28.67;;;23.57;;
813;SDS011;389;48.710;9.392;2022-08-19T09:45:13;27.87;;;22.93;;
813;SDS011;389;48.710;9.392;2022-08-19T09:47:39;25.23;;;21.43;;
813;SDS011;389;48.710;9.392;2022-08-19T09:50:06;28.80;;;23.13;;
813;SDS011;389;48.710;9.392;2022-08-19T09:52:34;27.77;;;23.10;;
813;SDS011;389;48.710;9.392;2022-08-19T09:55:05;30.00;;;23.10;;
813;SDS011;389;48.710;9.392;2022-08-19T09:57:31;28.03;;;23.43;;
813;SDS011;389;48.710;9.392;2022-08-19T09:59:57;27.03;;;22.17;;
813;SDS011;389;48.710;9.392;2022-08-19T10:02:23;30.03;;;23.97;;
813;SDS011;389;48.710;9.392;2022-08-19T10:04:49;28.23;;;22.83;;
813;SDS011;389;48.710;9.392;2022-08-19T10:07:34;30.80;;;23.70;;
813;SDS011;389;48.710;9.392;2022-08-19T10:10:00;28.47;;;23.60;;
813;SDS011;389;48.710;9.392;2022-08-19T10:12:26;31.57;;;24.30;;
813;SDS011;389;48.710;9.392;2022-08-19T10:14:51;31.47;;;23.77;;
813;SDS011;389;48.710;9.392;2022-08-19T10:17:19;29.60;;;24.10;;
813;SDS011;389;48.710;9.392;2022-08-19T10:19:45;27.10;;;22.83;;
813;SDS011;389;48.710;9.392;2022-08-19T10:22:11;34.80;;;24.97;;
813;SDS011;389;48.710;9.392;2022-08-19T10:24:38;32.13;;;24.50;;
813;SDS011;389;48.710;9.392;2022-08-19T10:27:04;28.17;;;23.43;;
813;SDS011;389;48.710;9.392;2022-08-19T10:29:31;32.07;;;23.97;;
813;SDS011;389;48.710;9.392;2022-08-19T10:32:00;29.20;;;24.10;;
813;SDS011;389;48.710;9.392;2022-08-19T10:34:27;31.77;;;25.20;;
813;SDS011;389;48.710;9.392;2022-08-19T10:36:53;35.00;;;26.23;;
813;SDS011;389;48.710;9.392;2022-08-19T10:39:19;32.20;;;25.87;;
813;SDS011;389;48.710;9.392;2022-08-19T10:41:45;33.00;;;25.90;;
813;SDS011;389;48.710;9.392;2022-08-19T10:44:11;33.10;;;26.03;;
813;SDS011;389;48.710;9.392;2022-08-19T10:46:41;33.00;;;24.37;;
813;SDS011;389;48.710;9.392;2022-08-19T10:49:12;30.00;;;24.43;;
813;SDS011;389;48.710;9.392;2022-08-19T10:51:38;31.83;;;24.80;;
813;SDS011;389;48.710;9.392;2022-08-19T10:54:23;29.37;;;24.70;;
813;SDS011;389;48.710;9.392;2022-08-19T10:57:09;30.90;;;26.37;;
813;SDS011;389;48.710;9.392;2022-08-19T10:59:35;29.20;;;24.63;;
813;SDS011;389;48.710;9.392;2022-08-19T11:02:02;32.57;;;24.80;;
813;SDS011;389;48.710;9.392;2022-08-19T11:04:29;33.57;;;25.17;;
813;SDS011;389;48.710;9.392;2022-08-19T11:06:55;39.10;;;26.97;;
813;SDS011;389;48.710;9.392;2022-08-19T11:09:22;36.43;;;27.20;;
813;SDS011;389;48.710;9.392;2022-08-19T11:11:58;33.90;;;26.50;;
813;SDS011;389;48.710;9.392;2022-08-19T11:14:23;37.07;;;27.87;;
813;SDS011;389;48.710;9.392;2022-08-19T11:16:51;37.17;;;27.07;;
813;SDS011;389;48.710;9.392;2022-08-19T11:19:18;34.17;;;28.03;;
813;SDS011;389;48.710;9.392;2022-08-19T11:21:45;35.13;;;26.63;;
813;SDS011;389;48.710;9.392;2022-08-19T11:24:14;35.47;;;28.80;;
813;SDS011;389;48.710;9.392;2022-08-19T11:26:50;37.90;;;27.13;;
813;SDS011;389;48.710;9.392;2022-08-19T11:29:18;38.27;;;29.77;;
813;SDS011;389;48.710;9.392;2022-08-19T11:31:45;38.27;;;29.37;;
813;SDS011;389;48.710;9.392;2022-08-19T11:34:14;37.53;;;29.70;;
813;SDS011;389;48.710;9.392;2022-08-19T11:36:43;41.43;;;30.67;;
813;SDS011;389;48.710;9.392;2022-08-19T11:39:11;36.70;;;28.60;;
813;SDS011;389;48.710;9.392;2022-08-19T11:41:38;39.43;;;30.00;;
813;SDS011;389;48.710;9.392;2022-08-19T11:44:04;35.90;;;28.67;;
813;SDS011;389;48.710;9.392;2022-08-19T11:46:33;37.97;;;29.30;;
813;SDS011;389;48.710;9.392;2022-08-19T11:49:00;36.33;;;28.13;;
813;SDS011;389;48.710;9.392;2022-08-19T11:51:26;36.13;;;27.53;;
813;SDS011;389;48.710;9.392;2022-08-19T11:53:53;37.47;;;27.93;;
813;SDS011;389;48.710;9.392;2022-08-19T11:56:20;34.17;;;27.70;;
813;SDS011;389;48.710;9.392;2022-08-19T11:58:47;37.20;;;28.33;;
813;SDS011;389;48.710;9.392;2022-08-19T12:01:13;38.87;;;29.10;;
813;SDS011;389;48.710;9.392;2022-08-19T12:03:41;32.97;;;26.03;;
813;SDS011;389;48.710;9.392;2022-08-19T12:06:09;36.73;;;28.13;;
813;SDS011;389;48.710;9.392;2022-08-19T12:08:37;33.13;;;26.37;;
813;SDS011;389;48.710;9.392;2022-08-19T12:11:03;38.87;;;27.13;;
813;SDS011;389;48.710;9.392;2022-08-19T12:13:30;33.30;;;26.23;;
813;SDS011;389;48.710;9.392;2022-08-19T12:15:56;35.80;;;26.13;;
813;SDS011;389;48.710;9.392;2022-08-19T12:18:22;35.53;;;27.57;;
813;SDS011;389;48.710;9.392;2022-08-19T12:20:50;36.97;;;28.10;;
813;SDS011;389;48.710;9.392;2022-08-19T12:23:16;34.33;;;26.97;;
813;SDS011;389;48.710;9.392;2022-08-19T12:25:45;35.87;;;27.93;;
813;SDS011;389;48.710;9.392;2022-08-19T12:28:16;36.03;;;28.23;;
813;SDS011;389;48.710;9.392;2022-08-19T12:30:43;37.43;;;28.73;;
813;SDS011;389;48.710;9.392;2022-08-19T12:33:09;37.90;;;28.50;;
813;SDS011;389;48.710;9.392;2022-08-19T12:35:34;40.00;;;28.07;;
813;SDS011;389;48.710;9.392;2022-08-19T12:38:00;35.23;;;28.17;;
813;SDS011;389;48.710;9.392;2022-08-19T12:40:27;39.43;;;28.43;;
813;SDS011;389;48.710;9.392;2022-08-19T12:42:54;38.17;;;29.30;;
813;SDS011;389;48.710;9.392;2022-08-19T12:45:19;39.47;;;29.03;;
813;SDS011;389;48.710;9.392;2022-08-19T12:47:45;38.13;;;28.97;;
813;SDS011;389;48.710;9.392;2022-08-19T12:50:11;37.67;;;28.93;;
813;SDS011;389;48.710;9.392;2022-08-19T12:52:37;37.03;;;29.07;;
813;SDS011;389;48.710;9.392;2022-08-19T12:55:03;38.20;;;28.87;;
813;SDS011;389;48.710;9.392;2022-08-19T12:57:31;38.37;;;29.80;;
813;SDS011;389;48.710;9.392;2022-08-19T13:00:00;39.47;;;27.70;;
813;SDS011;389;48.710;9.392;2022-08-19T13:02:38;38.70;;;28.03;;
813;SDS011;389;48.710;9.392;2022-08-19T13:05:06;38.40;;;30.40;;
813;SDS011;389;48.710;9.392;2022-08-19T13:07:34;39.90;;;30.33;;
813;SDS011;389;48.710;9.392;2022-08-19T13:10:02;37.67;;;28.27;;
813;SDS011;389;48.710;9.392;2022-08-19T13:12:28;37.30;;;28.23;;
813;SDS011;389;48.710;9.392;2022-08-19T13:14:54;38.40;;;28.80;;
813;SDS011;389;48.710;9.392;2022-08-19T13:17:20;37.13;;;28.20;;
813;SDS011;389;48.710;9.392;2022-08-19T13:19:47;38.87;;;29.53;;
813;SDS011;389;48.710;9.392;2022-08-19T13:22:12;38.30;;;28.87;;
813;SDS011;389;48.710;9.392;2022-08-19T13:24:38;35.77;;;28.60;;
813;SDS011;389;48.710;9.392;2022-08-19T13:27:03;37.83;;;28.27;;
813;SDS011;389;48.710;9.392;2022-08-19T13:29:29;38.87;;;29.33;;
813;SDS011;389;48.710;9.392;2022-08-19T13:32:13;41.37;;;29.03;;
813;SDS011;389;48.710;9.392;2022-08-19T13:34:57;42.00;;;30.23;;
813;SDS011;389;48.710;9.392;2022-08-19T13:37:23;41.37;;;30.03;;
813;SDS011;389;48.710;9.392;2022-08-19T13:40:12;41.00;;;28.60;;
813;SDS011;389;48.710;9.392;2022-08-19T13:42:42;39.50;;;29.40;;
813;SDS011;389;48.710;9.392;2022-08-19T13:45:09;38.03;;;28.90;;
813;SDS011;389;48.710;9.392;2022-08-19T13:47:35;41.73;;;28.60;;
813;SDS011;389;48.710;9.392;2022-08-19T13:50:07;40.20;;;29.83;;
813;SDS011;389;48.710;9.392;2022-08-19T13:52:34;38.80;;;29.33;;
813;SDS011;389;48.710;9.392;2022-08-19T13:55:00;40.00;;;30.23;;
813;SDS011;389;48.710;9.392;2022-08-19T13:57:25;41.20;;;29.03;;
813;SDS011;389;48.710;9.392;2022-08-19T13:59:51;37.20;;;28.03;;
813;SDS011;389;48.710;9.392;2022-08-19T14:02:16;39.27;;;29.73;;
813;SDS011;389;48.710;9.392;2022-08-19T14:04:42;40.80;;;29.40;;
813;SDS011;389;48.710;9.392;2022-08-19T14:07:07;40.20;;;30.03;;
813;SDS011;389;48.710;9.392;2022-08-19T14:09:34;39.47;;;29.50;;
813;SDS011;389;48.710;9.392;2022-08-19T14:12:00;37.77;;;29.13;;
813;SDS011;389;48.710;9.392;2022-08-19T14:14:25;40.87;;;29.90;;
813;SDS011;389;48.710;9.392;2022-08-19T14:16:51;38.53;;;29.50;;
813;SDS011;389;48.710;9.392;2022-08-19T14:19:17;40.23;;;29.90;;
813;SDS011;389;48.710;9.392;2022-08-19T14:21:43;39.40;;;30.20;;
813;SDS011;389;48.710;9.392;2022-08-19T14:24:09;38.80;;;28.37;;
813;SDS011;389;48.710;9.392;2022-08-19T14:26:34;35.27;;;26.03;;
813;SDS011;389;48.710;9.392;2022-08-19T14:29:00;40.23;;;28.90;;
813;SDS011;389;48.710;9.392;2022-08-19T14:31:26;39.17;;;29.20;;
813;SDS011;389;48.710;9.392;2022-08-19T14:33:52;40.47;;;30.17;;
813;SDS011;389;48.710;9.392;2022-08-19T14:36:18;34.70;;;27.93;;
813;SDS011;389;48.710;9.392;2022-08-19T14:38:46;38.27;;;28.20;;
813;SDS011;389;48.710;9.392;2022-08-19T14:41:14;38.37;;;28.93;;
813;SDS011;389;48.710;9.392;2022-08-19T14:43:45;38.97;;;29.37;;
813;SDS011;389;48.710;9.392;2022-08-19T14:46:16;39.43;;;28.57;;
813;SDS011;389;48.710;9.392;2022-08-19T14:48:45;33.73;;;28.00;;
813;SDS011;389;48.710;9.392;2022-08-19T14:51:11;37.40;;;28.37;;
813;SDS011;389;48.710;9.392;2022-08-19T14:53:37;37.70;;;29.40;;
813;SDS011;389;48.710;9.392;2022-08-19T14:56:07;34.73;;;27.80;;
813;SDS011;389;48.710;9.392;2022-08-19T14:58:36;34.17;;;27.20;;
813;SDS011;389;48.710;9.392;2022-08-19T15:01:03;31.83;;;26.50;;
813;SDS011;389;48.710;9.392;2022-08-19T15:03:29;32.43;;;25.60;;
813;SDS011;389;48.710;9.392;2022-08-19T15:05:56;30.20;;;25.67;;
813;SDS011;389;48.710;9.392;2022-08-19T15:08:22;28.03;;;24.63;;
813;SDS011;389;48.710;9.392;2022-08-19T15:10:49;31.80;;;25.77;;
813;SDS011;389;48.710;9.392;2022-08-19T15:13:16;32.60;;;25.07;;
813;SDS011;389;48.710;9.392;2022-08-19T15:15:42;30.00;;;24.23;;
813;SDS011;389;48.710;9.392;2022-08-19T15:18:07;31.47;;;24.60;;
813;SDS011;389;48.710;9.392;2022-08-19T15:20:33;32.40;;;25.73;;
813;SDS011;389;48.710;9.392;2022-08-19T15:22:59;32.30;;;26.70;;
813;SDS011;389;48.710;9.392;2022-08-19T15:25:25;34.33;;;27.97;;
813;SDS011;389;48.710;9.392;2022-08-19T15:27:51;32.00;;;25.90;;
813;SDS011;389;48.710;9.392;2022-08-19T15:30:27;28.70;;;24.30;;
813;SDS011;389;48.710;9.392;2022-08-19T15:32:53;33.10;;;26.17;;
813;SDS011;389;48.710;9.392;2022-08-19T15:35:21;30.80;;;25.70;;
813;SDS011;389;48.710;9.392;2022-08-19T15:37:50;36.63;;;26.50;;
813;SDS011;389;48.710;9.392;2022-08-19T15:40:18;33.20;;;26.03;;
813;SDS011;389;48.710;9.392;2022-08-19T15:42:45;29.50;;;25.20;;
813;SDS011;389;48.710;9.392;2022-08-19T15:45:12;33.80;;;27.00;;
813;SDS011;389;48.710;9.392;2022-08-19T15:47:38;33.50;;;26.27;;
813;SDS011;389;48.710;9.392;2022-08-19T15:50:12;33.80;;;25.90;;
813;SDS011;389;48.710;9.392;2022-08-19T15:52:48;37.03;;;27.57;;
813;SDS011;389;48.710;9.392;2022-08-19T15:55:17;34.67;;;26.97;;
813;SDS011;389;48.710;9.392;2022-08-19T15:57:44;36.10;;;26.60;;
813;SDS011;389;48.710;9.392;2022-08-19T16:00:28;32.73;;;26.77;;
813;SDS011;389;48.710;9.392;2022-08-19T16:03:14;36.67;;;29.70;;
813;SDS011;389;48.710;9.392;2022-08-19T16:05:59;38.10;;;29.13;;
813;SDS011;389;48.710;9.392;2022-08-19T16:08:43;36.40;;;29.30;;
813;SDS011;389;48.710;9.392;2022-08-19T16:11:13;39.60;;;29.53;;
813;SDS011;389;48.710;9.392;2022-08-19T16:13:40;43.83;;;30.60;;
813;SDS011;389;48.710;9.392;2022-08-19T16:16:06;38.63;;;28.50;;
813;SDS011;389;48.710;9.392;2022-08-19T16:18:32;40.10;;;28.67;;
813;SDS011;389;48.710;9.392;2022-08-19T16:21:02;38.77;;;29.40;;
813;SDS011;389;48.710;9.392;2022-08-19T16:23:29;36.43;;;28.77;;
813;SDS011;389;48.710;9.392;2022-08-19T16:25:55;36.20;;;28.73;;
813;SDS011;389;48.710;9.392;2022-08-19T16:28:20;34.90;;;28.00;;
813;SDS011;389;48.710;9.392;2022-08-19T16:30:47;35.87;;;28.40;;
813;SDS011;389;48.710;9.392;2022-08-19T16:33:13;38.77;;;27.07;;
813;SDS011;389;48.710;9.392;2022-08-19T16:35:38;36.23;;;27.60;;
813;SDS011;389;48.710;9.392;2022-08-19T16:38:04;33.00;;;26.57;;
813;SDS011;389;48.710;9.392;2022-08-19T16:40:30;31.47;;;24.73;;
813;SDS011;389;48.710;9.392;2022-08-19T16:42:57;33.80;;;25.93;;
813;SDS011;389;48.710;9.392;2022-08-19T16:45:22;30.90;;;24.90;;
813;SDS011;389;48.710;9.392;2022-08-19T16:47:48;34.57;;;26.80;;
813;SDS011;389;48.710;9.392;2022-08-19T16:50:14;31.40;;;25.50;;
813;SDS011;389;48.710;9.392;2022-08-19T16:52:41;34.13;;;25.40;;
813;SDS011;389;48.710;9.392;2022-08-19T16:55:06;31.23;;;24.83;;
813;SDS011;389;48.710;9.392;2022-08-19T16:57:33;34.77;;;26.73;;
813;SDS011;389;48.710;9.392;2022-08-19T16:59:59;32.77;;;27.10;;
813;SDS011;389;48.710;9.392;2022-08-19T17:02:29;30.93;;;25.20;;
813;SDS011;389;48.710;9.392;2022-08-19T17:04:54;32.97;;;25.77;;
813;SDS011;389;48.710;9.392;2022-08-19T17:07:20;33.50;;;25.23;;
813;SDS011;389;48.710;9.392;2022-08-19T17:09:46;32.87;;;25.33;;
813;SDS011;389;48.710;9.392;2022-08-19T17:12:11;33.50;;;26.57;;
813;SDS011;389;48.710;9.392;2022-08-19T17:14:37;33.00;;;26.33;;
813;SDS011;389;48.710;9.392;2022-08-19T17:17:03;31.50;;;25.60;;
813;SDS011;389;48.710;9.392;2022-08-19T17:19:28;33.90;;;26.50;;
813;SDS011;389;48.710;9.392;2022-08-19T17:21:54;35.77;;;27.43;;
813;SDS011;389;48.710;9.392;2022-08-19T17:24:21;35.80;;;27.57;;
813;SDS011;389;48.710;9.392;2022-08-19T17:26:46;37.57;;;28.70;;
813;SDS011;389;48.710;9.392;2022-08-19T17:29:12;37.70;;;28.07;;
813;SDS011;389;48.710;9.392;2022-08-19T17:31:38;34.10;;;26.97;;
813;SDS011;389;48.710;9.392;2022-08-19T17:34:04;33.73;;;27.93;;
813;SDS011;389;48.710;9.392;2022-08-19T17:36:36;36.20;;;26.60;;
813;SDS011;389;48.710;9.392;2022-08-19T17:39:02;36.83;;;27.87;;
813;SDS011;389;48.710;9.392;2022-08-19T17:41:29;33.87;;;26.57;;
813;SDS011;389;48.710;9.392;2022-08-19T17:43:55;33.03;;;27.70;;
813;SDS011;389;48.710;9.392;2022-08-19T17:46:21;34.63;;;27.40;;
813;SDS011;389;48.710;9.392;2022-08-19T17:48:47;33.87;;;26.53;;
813;SDS011;389;48.710;9.392;2022-08-19T17:51:16;35.10;;;27.67;;
813;SDS011;389;48.710;9.392;2022-08-19T17:53:47;35.57;;;27.57;;
813;SDS011;389;48.710;9.392;2022-08-19T17:56:14;34.30;;;26.23;;
813;SDS011;389;48.710;9.392;2022-08-19T17:58:42;32.10;;;25.67;;
813;SDS011;389;48.710;9.392;2022-08-19T18:01:09;34.27;;;26.50;;
813;SDS011;389;48.710;9.392;2022-08-19T18:03:38;31.87;;;26.30;;
813;SDS011;389;48.710;9.392;2022-08-19T18:06:04;34.27;;;27.07;;
813;SDS011;389;48.710;9.392;2022-08-19T18:08:31;34.57;;;27.00;;
813;SDS011;389;48.710;9.392;2022-08-19T18:10:57;29.00;;;25.50;;
813;SDS011;389;48.710;9.392;2022-08-19T18:13:23;33.30;;;26.50;;
813;SDS011;389;48.710;9.392;2022-08-19T18:15:49;30.87;;;25.33;;